sensor_id;sensor_type;location;lat;lon;timestamp;temperature;humidity
20839;DHT22;10580;51.092;6.828;2022-12-29T00:01:52;11.10;99.90
20839;DHT22;10580;51.092;6.828;2022-12-29T00:04:18;11.00;99.90
20839;DHT22;10580;51.092;6.828;2022-12-29T00:06:44;11.00;99.90
20839;DHT22;10580;51.092;6.828;2022-12-29T00:09:15;11.00;99.90
20839;DHT22;10580;51.092;6.828;2022-12-29T00:11:41;11.00;99.90
20839;DHT22;10580;51.092;6.828;2022-12-29T00:14:08;11.10;99.90
20839;DHT22;10580;51.092;6.828;2022-12-29T00:16:53;11.00;99.90
20839;DHT22;10580;51.092;6.828;2022-12-29T00:19:18;11.00;99.90
20839;DHT22;10580;51.092;6.828;2022-12-29T00:22:05;11.10;99.90
20839;DHT22;10580;51.092;6.828;2022-12-29T00:24:49;11.10;99.90
20839;DHT22;10580;51.092;6.828;2022-12-29T00:27:28;11.20;99.90
20839;DHT22;10580;51.092;6.828;2022-12-29T00:30:14;11.30;99.90
20839;DHT22;10580;51.092;6.828;2022-12-29T00:32:59;11.30;99.90
20839;DHT22;10580;51.092;6.828;2022-12-29T00:35:53;11.40;99.90
20839;DHT22;10580;51.092;6.828;2022-12-29T00:38:19;11.30;99.90
20839;DHT22;10580;51.092;6.828;2022-12-29T00:41:03;11.30;99.90
20839;DHT22;10580;51.092;6.828;2022-12-29T00:43:47;11.30;99.90
20839;DHT22;10580;51.092;6.828;2022-12-29T00:46:36;11.20;99.90
20839;DHT22;10580;51.092;6.828;2022-12-29T00:49:02;11.20;99.90
20839;DHT22;10580;51.092;6.828;2022-12-29T00:51:47;11.30;99.90
20839;DHT22;10580;51.092;6.828;2022-12-29T00:54:12;11.20;99.90
20839;DHT22;10580;51.092;6.828;2022-12-29T00:56:38;11.20;99.90
20839;DHT22;10580;51.092;6.828;2022-12-29T00:59:06;11.20;99.90
20839;DHT22;10580;51.092;6.828;2022-12-29T01:01:32;11.20;99.90
20839;DHT22;10580;51.092;6.828;2022-12-29T01:03:58;11.30;99.90
20839;DHT22;10580;51.092;6.828;2022-12-29T01:06:24;11.30;99.90
20839;DHT22;10580;51.092;6.828;2022-12-29T01:08:50;11.30;99.90
20839;DHT22;10580;51.092;6.828;2022-12-29T01:11:36;11.40;99.90
20839;DHT22;10580;51.092;6.828;2022-12-29T01:14:02;11.20;99.90
20839;DHT22;10580;51.092;6.828;2022-12-29T01:16:29;11.10;99.90
20839;DHT22;10580;51.092;6.828;2022-12-29T01:18:54;11.10;99.90
20839;DHT22;10580;51.092;6.828;2022-12-29T01:21:20;11.00;99.90
20839;DHT22;10580;51.092;6.828;2022-12-29T01:23:45;11.00;99.90
20839;DHT22;10580;51.092;6.828;2022-12-29T01:26:13;11.00;99.90
20839;DHT22;10580;51.092;6.828;2022-12-29T01:28:39;10.90;99.90
20839;DHT22;10580;51.092;6.828;2022-12-29T01:31:06;10.90;99.90
20839;DHT22;10580;51.092;6.828;2022-12-29T01:33:32;11.00;99.90
20839;DHT22;10580;51.092;6.828;2022-12-29T01:36:02;11.00;99.90
20839;DHT22;10580;51.092;6.828;2022-12-29T01:38:27;11.00;99.90
20839;DHT22;10580;51.092;6.828;2022-12-29T01:40:53;11.10;99.90
20839;DHT22;10580;51.092;6.828;2022-12-29T01:43:18;11.30;99.90
20839;DHT22;10580;51.092;6.828;2022-12-29T01:45:48;11.40;99.90
20839;DHT22;10580;51.092;6.828;2022-12-29T01:48:15;11.40;99.90
20839;DHT22;10580;51.092;6.828;2022-12-29T01:50:46;11.50;99.90
20839;DHT22;10580;51.092;6.828;2022-12-29T01:53:21;11.60;99.90
20839;DHT22;10580;51.092;6.828;2022-12-29T01:55:54;11.60;99.90
20839;DHT22;10580;51.092;6.828;2022-12-29T01:58:22;11.60;99.90
20839;DHT22;10580;51.092;6.828;2022-12-29T02:00:49;11.70;99.90
20839;DHT22;10580;51.092;6.828;2022-12-29T02:03:17;11.70;99.90
20839;DHT22;10580;51.092;6.828;2022-12-29T02:05:55;11.60;99.90
20839;DHT22;10580;51.092;6.828;2022-12-29T02:08:22;11.70;99.90
20839;DHT22;10580;51.092;6.828;2022-12-29T02:10:50;11.70;99.90
20839;DHT22;10580;51.092;6.828;2022-12-29T02:13:16;11.70;99.90
20839;DHT22;10580;51.092;6.828;2022-12-29T02:32:07;11.80;99.90
20839;DHT22;10580;51.092;6.828;2022-12-29T02:37:22;11.90;99.90
20839;DHT22;10580;51.092;6.828;2022-12-29T02:43:09;11.90;99.90
20839;DHT22;10580;51.092;6.828;2022-12-29T02:48:46;12.00;99.90
20839;DHT22;10580;51.092;6.828;2022-12-29T02:51:23;12.00;99.90
20839;DHT22;10580;51.092;6.828;2022-12-29T02:53:53;12.00;99.90
20839;DHT22;10580;51.092;6.828;2022-12-29T02:56:37;12.00;99.90
20839;DHT22;10580;51.092;6.828;2022-12-29T02:59:03;12.00;99.90
20839;DHT22;10580;51.092;6.828;2022-12-29T03:05:26;12.00;99.90
20839;DHT22;10580;51.092;6.828;2022-12-29T03:11:02;12.00;99.90
20839;DHT22;10580;51.092;6.828;2022-12-29T03:13:47;12.00;99.90
20839;DHT22;10580;51.092;6.828;2022-12-29T03:19:37;12.00;99.90
20839;DHT22;10580;51.092;6.828;2022-12-29T03:22:14;12.00;99.90
20839;DHT22;10580;51.092;6.828;2022-12-29T03:24:55;11.90;99.90
20839;DHT22;10580;51.092;6.828;2022-12-29T03:27:29;11.90;99.90
20839;DHT22;10580;51.092;6.828;2022-12-29T03:30:00;11.90;99.90
20839;DHT22;10580;51.092;6.828;2022-12-29T03:32:32;11.90;99.90
20839;DHT22;10580;51.092;6.828;2022-12-29T03:34:59;11.80;99.90
20839;DHT22;10580;51.092;6.828;2022-12-29T03:37:30;11.80;99.90
20839;DHT22;10580;51.092;6.828;2022-12-29T03:39:56;11.80;99.90
20839;DHT22;10580;51.092;6.828;2022-12-29T03:42:25;11.70;99.90
20839;DHT22;10580;51.092;6.828;2022-12-29T03:44:55;11.70;99.90
20839;DHT22;10580;51.092;6.828;2022-12-29T03:47:22;11.70;99.90
20839;DHT22;10580;51.092;6.828;2022-12-29T03:49:49;11.70;99.90
20839;DHT22;10580;51.092;6.828;2022-12-29T03:52:15;11.60;99.90
20839;DHT22;10580;51.092;6.828;2022-12-29T03:54:40;11.60;99.90
20839;DHT22;10580;51.092;6.828;2022-12-29T03:57:06;11.60;99.90
20839;DHT22;10580;51.092;6.828;2022-12-29T03:59:32;11.60;99.90
20839;DHT22;10580;51.092;6.828;2022-12-29T04:01:57;11.60;99.90
20839;DHT22;10580;51.092;6.828;2022-12-29T04:04:23;11.60;99.90
20839;DHT22;10580;51.092;6.828;2022-12-29T04:06:48;11.60;99.90
20839;DHT22;10580;51.092;6.828;2022-12-29T04:09:14;11.50;99.90
20839;DHT22;10580;51.092;6.828;2022-12-29T04:11:39;11.50;99.90
20839;DHT22;10580;51.092;6.828;2022-12-29T04:14:05;11.50;99.90
20839;DHT22;10580;51.092;6.828;2022-12-29T04:16:31;11.50;99.90
20839;DHT22;10580;51.092;6.828;2022-12-29T04:18:56;11.50;99.90
20839;DHT22;10580;51.092;6.828;2022-12-29T04:21:22;11.60;99.90
20839;DHT22;10580;51.092;6.828;2022-12-29T04:23:47;11.70;99.90
20839;DHT22;10580;51.092;6.828;2022-12-29T04:26:13;11.70;99.90
20839;DHT22;10580;51.092;6.828;2022-12-29T04:28:39;11.80;99.90
20839;DHT22;10580;51.092;6.828;2022-12-29T04:31:05;11.80;99.90
20839;DHT22;10580;51.092;6.828;2022-12-29T04:33:31;11.80;99.90
20839;DHT22;10580;51.092;6.828;2022-12-29T04:35:56;11.70;99.90
20839;DHT22;10580;51.092;6.828;2022-12-29T04:38:23;11.80;99.90
20839;DHT22;10580;51.092;6.828;2022-12-29T04:40:49;11.80;99.90
20839;DHT22;10580;51.092;6.828;2022-12-29T04:43:15;11.90;99.90
20839;DHT22;10580;51.092;6.828;2022-12-29T04:45:46;11.90;99.90
20839;DHT22;10580;51.092;6.828;2022-12-29T04:48:12;12.00;99.90
20839;DHT22;10580;51.092;6.828;2022-12-29T04:50:39;12.20;99.90
20839;DHT22;10580;51.092;6.828;2022-12-29T04:53:05;12.10;99.90
20839;DHT22;10580;51.092;6.828;2022-12-29T04:55:30;12.20;96.20
20839;DHT22;10580;51.092;6.828;2022-12-29T04:57:56;12.30;91.20
20839;DHT22;10580;51.092;6.828;2022-12-29T05:00:22;12.40;57.50
20839;DHT22;10580;51.092;6.828;2022-12-29T05:02:48;12.40;59.30
20839;DHT22;10580;51.092;6.828;2022-12-29T05:05:13;12.30;71.90
20839;DHT22;10580;51.092;6.828;2022-12-29T05:07:39;12.40;60.80
20839;DHT22;10580;51.092;6.828;2022-12-29T05:10:06;12.30;82.70
20839;DHT22;10580;51.092;6.828;2022-12-29T05:12:33;12.30;83.70
20839;DHT22;10580;51.092;6.828;2022-12-29T05:14:58;12.20;92.80
20839;DHT22;10580;51.092;6.828;2022-12-29T05:17:24;12.20;75.80
20839;DHT22;10580;51.092;6.828;2022-12-29T05:19:50;12.20;84.00
20839;DHT22;10580;51.092;6.828;2022-12-29T05:22:16;12.30;52.70
20839;DHT22;10580;51.092;6.828;2022-12-29T05:24:41;12.40;44.10
20839;DHT22;10580;51.092;6.828;2022-12-29T05:27:07;12.40;51.80
20839;DHT22;10580;51.092;6.828;2022-12-29T05:29:32;12.40;48.50
20839;DHT22;10580;51.092;6.828;2022-12-29T05:31:58;12.30;50.70
20839;DHT22;10580;51.092;6.828;2022-12-29T05:34:23;12.30;64.90
20839;DHT22;10580;51.092;6.828;2022-12-29T05:36:49;12.40;8.80
20839;DHT22;10580;51.092;6.828;2022-12-29T05:39:15;12.40;8.80
20839;DHT22;10580;51.092;6.828;2022-12-29T05:41:40;12.40;2.00
20839;DHT22;10580;51.092;6.828;2022-12-29T05:44:06;12.40;2.60
20839;DHT22;10580;51.092;6.828;2022-12-29T05:46:32;12.40;1.00
20839;DHT22;10580;51.092;6.828;2022-12-29T05:48:57;12.40;14.60
20839;DHT22;10580;51.092;6.828;2022-12-29T05:51:23;12.30;13.10
20839;DHT22;10580;51.092;6.828;2022-12-29T05:53:49;12.40;14.20
20839;DHT22;10580;51.092;6.828;2022-12-29T05:56:15;12.30;21.20
20839;DHT22;10580;51.092;6.828;2022-12-29T05:58:40;12.30;15.70
20839;DHT22;10580;51.092;6.828;2022-12-29T06:01:06;12.30;15.80
20839;DHT22;10580;51.092;6.828;2022-12-29T06:03:31;12.30;15.90
20839;DHT22;10580;51.092;6.828;2022-12-29T06:05:57;12.30;25.00
20839;DHT22;10580;51.092;6.828;2022-12-29T06:08:23;12.20;37.20
20839;DHT22;10580;51.092;6.828;2022-12-29T06:10:49;12.20;46.80
20839;DHT22;10580;51.092;6.828;2022-12-29T06:13:14;12.20;29.50
20839;DHT22;10580;51.092;6.828;2022-12-29T06:15:40;12.10;48.20
20839;DHT22;10580;51.092;6.828;2022-12-29T06:18:06;12.10;35.00
20839;DHT22;10580;51.092;6.828;2022-12-29T06:20:31;12.20;21.00
20839;DHT22;10580;51.092;6.828;2022-12-29T06:22:57;12.10;28.60
20839;DHT22;10580;51.092;6.828;2022-12-29T06:25:22;12.10;37.20
20839;DHT22;10580;51.092;6.828;2022-12-29T06:27:48;12.00;28.10
20839;DHT22;10580;51.092;6.828;2022-12-29T06:30:13;12.10;1.00
20839;DHT22;10580;51.092;6.828;2022-12-29T06:32:40;12.00;8.50
20839;DHT22;10580;51.092;6.828;2022-12-29T06:35:06;12.00;9.20
20839;DHT22;10580;51.092;6.828;2022-12-29T06:37:32;12.00;8.30
20839;DHT22;10580;51.092;6.828;2022-12-29T06:39:57;12.00;1.00
20839;DHT22;10580;51.092;6.828;2022-12-29T06:42:23;12.00;1.00
20839;DHT22;10580;51.092;6.828;2022-12-29T06:44:49;11.90;1.00
20839;DHT22;10580;51.092;6.828;2022-12-29T06:47:15;11.90;1.00
20839;DHT22;10580;51.092;6.828;2022-12-29T06:49:41;11.90;1.00
20839;DHT22;10580;51.092;6.828;2022-12-29T06:52:06;11.90;1.00
20839;DHT22;10580;51.092;6.828;2022-12-29T06:54:32;11.90;1.00
20839;DHT22;10580;51.092;6.828;2022-12-29T06:56:58;11.90;1.00
20839;DHT22;10580;51.092;6.828;2022-12-29T06:59:23;11.90;7.30
20839;DHT22;10580;51.092;6.828;2022-12-29T07:01:50;11.90;17.50
20839;DHT22;10580;51.092;6.828;2022-12-29T07:04:15;11.90;11.60
20839;DHT22;10580;51.092;6.828;2022-12-29T07:06:41;11.90;20.40
20839;DHT22;10580;51.092;6.828;2022-12-29T07:09:08;11.90;13.10
20839;DHT22;10580;51.092;6.828;2022-12-29T07:11:33;11.90;23.30
20839;DHT22;10580;51.092;6.828;2022-12-29T07:13:59;11.90;30.40
20839;DHT22;10580;51.092;6.828;2022-12-29T07:16:25;11.80;61.00
20839;DHT22;10580;51.092;6.828;2022-12-29T07:18:51;11.80;44.50
20839;DHT22;10580;51.092;6.828;2022-12-29T07:21:17;11.80;38.40
20839;DHT22;10580;51.092;6.828;2022-12-29T07:23:43;11.80;45.80
20839;DHT22;10580;51.092;6.828;2022-12-29T07:26:12;11.80;34.30
20839;DHT22;10580;51.092;6.828;2022-12-29T07:28:38;11.80;42.60
20839;DHT22;10580;51.092;6.828;2022-12-29T07:31:05;11.90;8.30
20839;DHT22;10580;51.092;6.828;2022-12-29T07:33:31;11.80;11.80
20839;DHT22;10580;51.092;6.828;2022-12-29T07:36:25;11.80;8.40
20839;DHT22;10580;51.092;6.828;2022-12-29T07:39:02;11.70;17.40
20839;DHT22;10580;51.092;6.828;2022-12-29T07:41:28;11.70;27.30
20839;DHT22;10580;51.092;6.828;2022-12-29T07:43:54;11.70;32.60
20839;DHT22;10580;51.092;6.828;2022-12-29T07:46:19;11.60;49.60
20839;DHT22;10580;51.092;6.828;2022-12-29T07:48:45;11.60;57.10
20839;DHT22;10580;51.092;6.828;2022-12-29T07:51:10;11.60;73.60
20839;DHT22;10580;51.092;6.828;2022-12-29T07:53:36;11.60;59.40
20839;DHT22;10580;51.092;6.828;2022-12-29T07:56:02;11.60;44.00
20839;DHT22;10580;51.092;6.828;2022-12-29T07:58:28;11.60;24.70
20839;DHT22;10580;51.092;6.828;2022-12-29T08:00:56;11.60;21.00
20839;DHT22;10580;51.092;6.828;2022-12-29T08:03:22;11.50;46.00
20839;DHT22;10580;51.092;6.828;2022-12-29T08:05:49;11.50;40.40
20839;DHT22;10580;51.092;6.828;2022-12-29T08:08:14;11.50;37.50
20839;DHT22;10580;51.092;6.828;2022-12-29T08:10:40;11.50;52.30
20839;DHT22;10580;51.092;6.828;2022-12-29T08:13:06;11.40;59.60
20839;DHT22;10580;51.092;6.828;2022-12-29T08:15:31;11.50;52.00
20839;DHT22;10580;51.092;6.828;2022-12-29T08:17:57;11.50;59.80
20839;DHT22;10580;51.092;6.828;2022-12-29T08:20:23;11.50;63.20
20839;DHT22;10580;51.092;6.828;2022-12-29T08:22:51;11.50;57.20
20839;DHT22;10580;51.092;6.828;2022-12-29T08:25:17;11.50;58.30
20839;DHT22;10580;51.092;6.828;2022-12-29T08:27:42;11.50;65.90
20839;DHT22;10580;51.092;6.828;2022-12-29T08:30:08;11.50;85.80
20839;DHT22;10580;51.092;6.828;2022-12-29T08:32:34;11.50;76.10
20839;DHT22;10580;51.092;6.828;2022-12-29T08:35:00;11.40;83.90
20839;DHT22;10580;51.092;6.828;2022-12-29T08:37:25;11.50;77.40
20839;DHT22;10580;51.092;6.828;2022-12-29T08:39:51;11.50;45.40
20839;DHT22;10580;51.092;6.828;2022-12-29T08:42:17;11.50;33.80
20839;DHT22;10580;51.092;6.828;2022-12-29T08:44:42;11.60;3.60
20839;DHT22;10580;51.092;6.828;2022-12-29T08:47:10;11.60;1.00
20839;DHT22;10580;51.092;6.828;2022-12-29T08:49:36;11.60;1.00
20839;DHT22;10580;51.092;6.828;2022-12-29T08:52:02;11.60;1.00
20839;DHT22;10580;51.092;6.828;2022-12-29T08:54:28;11.70;1.00
20839;DHT22;10580;51.092;6.828;2022-12-29T08:56:53;11.60;1.00
20839;DHT22;10580;51.092;6.828;2022-12-29T08:59:19;11.70;1.00
20839;DHT22;10580;51.092;6.828;2022-12-29T09:01:44;11.60;1.00
20839;DHT22;10580;51.092;6.828;2022-12-29T09:04:10;11.60;1.00
20839;DHT22;10580;51.092;6.828;2022-12-29T09:06:35;11.50;1.00
20839;DHT22;10580;51.092;6.828;2022-12-29T09:09:02;11.50;2.60
20839;DHT22;10580;51.092;6.828;2022-12-29T09:11:27;11.50;1.00
20839;DHT22;10580;51.092;6.828;2022-12-29T09:13:53;11.40;1.00
20839;DHT22;10580;51.092;6.828;2022-12-29T09:16:20;11.40;1.00
20839;DHT22;10580;51.092;6.828;2022-12-29T09:18:46;11.40;1.00
20839;DHT22;10580;51.092;6.828;2022-12-29T09:21:13;11.40;1.00
20839;DHT22;10580;51.092;6.828;2022-12-29T09:23:39;11.50;1.00
20839;DHT22;10580;51.092;6.828;2022-12-29T09:26:06;11.50;1.00
20839;DHT22;10580;51.092;6.828;2022-12-29T09:28:33;11.70;1.00
20839;DHT22;10580;51.092;6.828;2022-12-29T09:30:59;12.10;1.00
20839;DHT22;10580;51.092;6.828;2022-12-29T09:33:25;12.60;1.00
20839;DHT22;10580;51.092;6.828;2022-12-29T09:35:57;12.70;1.00
20839;DHT22;10580;51.092;6.828;2022-12-29T09:38:24;13.20;1.00
20839;DHT22;10580;51.092;6.828;2022-12-29T09:40:53;13.00;99.90
20839;DHT22;10580;51.092;6.828;2022-12-29T09:46:40;12.90;1.00
20839;DHT22;10580;51.092;6.828;2022-12-29T09:49:18;13.00;99.90
20839;DHT22;10580;51.092;6.828;2022-12-29T09:51:55;13.30;1.00
20839;DHT22;10580;51.092;6.828;2022-12-29T09:57:20;13.10;1.00
20839;DHT22;10580;51.092;6.828;2022-12-29T09:59:49;12.90;1.00
20839;DHT22;10580;51.092;6.828;2022-12-29T10:02:36;12.80;99.90
20839;DHT22;10580;51.092;6.828;2022-12-29T10:05:03;13.10;12.40
20839;DHT22;10580;51.092;6.828;2022-12-29T10:07:52;13.40;99.90
20839;DHT22;10580;51.092;6.828;2022-12-29T10:13:04;13.00;1.00
20839;DHT22;10580;51.092;6.828;2022-12-29T10:15:54;12.80;1.00
20839;DHT22;10580;51.092;6.828;2022-12-29T10:21:47;12.70;99.90
20839;DHT22;10580;51.092;6.828;2022-12-29T10:23:51;12.70;1.00
20839;DHT22;10580;51.092;6.828;2022-12-29T10:26:20;12.50;99.90
20839;DHT22;10580;51.092;6.828;2022-12-29T10:29:02;12.50;1.00
20839;DHT22;10580;51.092;6.828;2022-12-29T10:31:41;12.60;1.00
20839;DHT22;10580;51.092;6.828;2022-12-29T10:34:29;12.70;99.90
20839;DHT22;10580;51.092;6.828;2022-12-29T10:37:15;12.60;1.00
20839;DHT22;10580;51.092;6.828;2022-12-29T10:39:54;12.60;1.00
20839;DHT22;10580;51.092;6.828;2022-12-29T10:45:01;12.70;1.00
20839;DHT22;10580;51.092;6.828;2022-12-29T10:47:31;12.60;99.90
20839;DHT22;10580;51.092;6.828;2022-12-29T10:50:00;12.60;99.90
20839;DHT22;10580;51.092;6.828;2022-12-29T10:52:27;12.50;1.00
20839;DHT22;10580;51.092;6.828;2022-12-29T10:55:00;12.50;99.90
20839;DHT22;10580;51.092;6.828;2022-12-29T10:57:32;12.50;76.30
20839;DHT22;10580;51.092;6.828;2022-12-29T10:59:58;12.50;99.90
20839;DHT22;10580;51.092;6.828;2022-12-29T11:02:49;12.60;99.90
20839;DHT22;10580;51.092;6.828;2022-12-29T11:05:22;12.70;1.00
20839;DHT22;10580;51.092;6.828;2022-12-29T11:07:53;12.70;1.00
20839;DHT22;10580;51.092;6.828;2022-12-29T11:13:04;12.70;1.00
20839;DHT22;10580;51.092;6.828;2022-12-29T11:15:44;12.70;1.00
20839;DHT22;10580;51.092;6.828;2022-12-29T11:20:47;12.70;1.00
20839;DHT22;10580;51.092;6.828;2022-12-29T11:23:37;12.80;1.00
20839;DHT22;10580;51.092;6.828;2022-12-29T11:26:23;12.80;1.00
20839;DHT22;10580;51.092;6.828;2022-12-29T11:31:53;12.70;1.00
20839;DHT22;10580;51.092;6.828;2022-12-29T11:34:40;12.80;1.00
20839;DHT22;10580;51.092;6.828;2022-12-29T11:37:25;12.60;1.00
20839;DHT22;10580;51.092;6.828;2022-12-29T11:39:58;12.60;1.00
20839;DHT22;10580;51.092;6.828;2022-12-29T11:42:54;12.50;99.90
20839;DHT22;10580;51.092;6.828;2022-12-29T11:45:26;12.50;1.00
20839;DHT22;10580;51.092;6.828;2022-12-29T11:48:17;12.40;1.00
20839;DHT22;10580;51.092;6.828;2022-12-29T11:50:50;12.40;1.00
20839;DHT22;10580;51.092;6.828;2022-12-29T11:56:35;12.30;99.90
20839;DHT22;10580;51.092;6.828;2022-12-29T11:59:24;12.30;99.90
20839;DHT22;10580;51.092;6.828;2022-12-29T12:01:57;12.20;99.90
20839;DHT22;10580;51.092;6.828;2022-12-29T12:04:27;12.10;99.90
20839;DHT22;10580;51.092;6.828;2022-12-29T12:08:04;12.20;99.90
20839;DHT22;10580;51.092;6.828;2022-12-29T12:09:59;12.10;1.00
20839;DHT22;10580;51.092;6.828;2022-12-29T12:12:41;12.00;1.00
20839;DHT22;10580;51.092;6.828;2022-12-29T12:15:20;12.00;1.00
20839;DHT22;10580;51.092;6.828;2022-12-29T12:17:53;11.90;99.90
20839;DHT22;10580;51.092;6.828;2022-12-29T12:20:26;11.90;1.00
20839;DHT22;10580;51.092;6.828;2022-12-29T12:26:13;11.90;1.00
20839;DHT22;10580;51.092;6.828;2022-12-29T12:29:01;11.90;1.00
20839;DHT22;10580;51.092;6.828;2022-12-29T12:32:05;11.90;1.00
20839;DHT22;10580;51.092;6.828;2022-12-29T12:34:40;11.90;1.00
20839;DHT22;10580;51.092;6.828;2022-12-29T12:43:06;11.90;1.00
20839;DHT22;10580;51.092;6.828;2022-12-29T12:45:42;11.90;1.00
20839;DHT22;10580;51.092;6.828;2022-12-29T12:51:41;11.90;1.00
20839;DHT22;10580;51.092;6.828;2022-12-29T12:54:23;11.90;1.00
20839;DHT22;10580;51.092;6.828;2022-12-29T13:11:21;11.80;1.00
20839;DHT22;10580;51.092;6.828;2022-12-29T13:30:19;11.90;99.90
20839;DHT22;10580;51.092;6.828;2022-12-29T13:33:13;11.90;1.00
20839;DHT22;10580;51.092;6.828;2022-12-29T13:38:41;11.90;99.90
20839;DHT22;10580;51.092;6.828;2022-12-29T13:41:16;11.90;99.90
20839;DHT22;10580;51.092;6.828;2022-12-29T13:43:45;11.80;99.90
20839;DHT22;10580;51.092;6.828;2022-12-29T13:46:21;11.70;1.00
20839;DHT22;10580;51.092;6.828;2022-12-29T13:49:06;11.70;1.00
20839;DHT22;10580;51.092;6.828;2022-12-29T13:51:34;11.60;1.00
20839;DHT22;10580;51.092;6.828;2022-12-29T14:00:12;11.50;1.00
20839;DHT22;10580;51.092;6.828;2022-12-29T14:07:56;11.40;1.00
20839;DHT22;10580;51.092;6.828;2022-12-29T14:10:33;11.40;1.00
20839;DHT22;10580;51.092;6.828;2022-12-29T14:13:15;11.40;1.00
20839;DHT22;10580;51.092;6.828;2022-12-29T14:18:21;11.40;99.90
20839;DHT22;10580;51.092;6.828;2022-12-29T14:21:07;11.40;99.90
20839;DHT22;10580;51.092;6.828;2022-12-29T14:23:35;11.40;1.00
20839;DHT22;10580;51.092;6.828;2022-12-29T14:28:39;11.30;99.90
20839;DHT22;10580;51.092;6.828;2022-12-29T14:37:00;11.20;1.00
20839;DHT22;10580;51.092;6.828;2022-12-29T14:39:43;11.10;1.00
20839;DHT22;10580;51.092;6.828;2022-12-29T14:47:37;11.10;1.00
20839;DHT22;10580;51.092;6.828;2022-12-29T14:52:57;11.10;1.00
20839;DHT22;10580;51.092;6.828;2022-12-29T15:00:44;11.00;1.00
20839;DHT22;10580;51.092;6.828;2022-12-29T15:05:59;11.00;1.00
20839;DHT22;10580;51.092;6.828;2022-12-29T15:08:33;11.00;1.00
20839;DHT22;10580;51.092;6.828;2022-12-29T15:11:10;11.00;1.00
20839;DHT22;10580;51.092;6.828;2022-12-29T15:13:40;11.00;1.00
20839;DHT22;10580;51.092;6.828;2022-12-29T15:16:30;11.00;1.00
20839;DHT22;10580;51.092;6.828;2022-12-29T15:18:57;10.90;1.00
20839;DHT22;10580;51.092;6.828;2022-12-29T15:21:26;10.90;1.00
20839;DHT22;10580;51.092;6.828;2022-12-29T15:23:52;10.90;1.00
20839;DHT22;10580;51.092;6.828;2022-12-29T15:26:18;10.90;1.00
20839;DHT22;10580;51.092;6.828;2022-12-29T15:28:49;10.80;1.00
20839;DHT22;10580;51.092;6.828;2022-12-29T15:31:19;10.80;1.00
20839;DHT22;10580;51.092;6.828;2022-12-29T15:33:53;10.70;1.00
20839;DHT22;10580;51.092;6.828;2022-12-29T15:36:27;10.70;1.00
20839;DHT22;10580;51.092;6.828;2022-12-29T15:38:54;10.70;1.00
20839;DHT22;10580;51.092;6.828;2022-12-29T15:41:25;10.70;1.00
20839;DHT22;10580;51.092;6.828;2022-12-29T15:44:16;10.70;1.00
20839;DHT22;10580;51.092;6.828;2022-12-29T15:46:42;10.70;1.00
20839;DHT22;10580;51.092;6.828;2022-12-29T15:49:09;10.70;1.00
20839;DHT22;10580;51.092;6.828;2022-12-29T15:51:39;10.70;1.00
20839;DHT22;10580;51.092;6.828;2022-12-29T15:54:05;10.70;1.00
20839;DHT22;10580;51.092;6.828;2022-12-29T15:56:32;10.70;1.00
20839;DHT22;10580;51.092;6.828;2022-12-29T15:58:59;10.70;1.00
20839;DHT22;10580;51.092;6.828;2022-12-29T16:01:33;10.70;1.00
20839;DHT22;10580;51.092;6.828;2022-12-29T16:04:01;10.60;1.00
20839;DHT22;10580;51.092;6.828;2022-12-29T16:06:35;10.60;1.00
20839;DHT22;10580;51.092;6.828;2022-12-29T16:11:36;10.50;1.00
20839;DHT22;10580;51.092;6.828;2022-12-29T16:14:07;10.50;1.00
20839;DHT22;10580;51.092;6.828;2022-12-29T16:16:39;10.50;1.00
20839;DHT22;10580;51.092;6.828;2022-12-29T16:19:36;10.50;1.00
20839;DHT22;10580;51.092;6.828;2022-12-29T16:22:10;10.40;1.00
20839;DHT22;10580;51.092;6.828;2022-12-29T16:24:39;10.30;1.00
20839;DHT22;10580;51.092;6.828;2022-12-29T16:29:30;10.10;1.00
20839;DHT22;10580;51.092;6.828;2022-12-29T16:31:58;10.10;1.00
20839;DHT22;10580;51.092;6.828;2022-12-29T16:37:04;9.90;1.00
20839;DHT22;10580;51.092;6.828;2022-12-29T16:39:32;9.90;1.00
20839;DHT22;10580;51.092;6.828;2022-12-29T16:41:58;9.90;1.00
20839;DHT22;10580;51.092;6.828;2022-12-29T16:44:30;9.80;1.00
20839;DHT22;10580;51.092;6.828;2022-12-29T16:49:39;9.80;1.00
20839;DHT22;10580;51.092;6.828;2022-12-29T16:52:18;9.80;1.00
20839;DHT22;10580;51.092;6.828;2022-12-29T16:55:03;9.80;1.00
20839;DHT22;10580;51.092;6.828;2022-12-29T16:57:31;9.80;1.00
20839;DHT22;10580;51.092;6.828;2022-12-29T17:00:01;9.70;1.00
20839;DHT22;10580;51.092;6.828;2022-12-29T17:02:29;9.70;1.00
20839;DHT22;10580;51.092;6.828;2022-12-29T17:04:56;9.70;1.00
20839;DHT22;10580;51.092;6.828;2022-12-29T17:07:24;9.70;1.00
20839;DHT22;10580;51.092;6.828;2022-12-29T17:09:51;9.70;1.00
20839;DHT22;10580;51.092;6.828;2022-12-29T17:12:26;9.70;1.00
20839;DHT22;10580;51.092;6.828;2022-12-29T17:17:24;9.80;1.00
20839;DHT22;10580;51.092;6.828;2022-12-29T17:19:55;9.70;1.00
20839;DHT22;10580;51.092;6.828;2022-12-29T17:22:26;9.80;1.00
20839;DHT22;10580;51.092;6.828;2022-12-29T17:24:53;9.80;1.00
20839;DHT22;10580;51.092;6.828;2022-12-29T17:29:51;9.70;1.60
20839;DHT22;10580;51.092;6.828;2022-12-29T17:32:18;9.80;10.90
20839;DHT22;10580;51.092;6.828;2022-12-29T17:34:43;9.80;4.00
20839;DHT22;10580;51.092;6.828;2022-12-29T17:39:50;9.80;1.00
20839;DHT22;10580;51.092;6.828;2022-12-29T17:42:17;9.80;1.00
20839;DHT22;10580;51.092;6.828;2022-12-29T17:44:43;9.70;1.00
20839;DHT22;10580;51.092;6.828;2022-12-29T17:47:12;9.70;1.00
20839;DHT22;10580;51.092;6.828;2022-12-29T17:49:40;9.70;1.00
20839;DHT22;10580;51.092;6.828;2022-12-29T17:52:13;9.80;1.00
20839;DHT22;10580;51.092;6.828;2022-12-29T17:54:49;9.80;1.00
20839;DHT22;10580;51.092;6.828;2022-12-29T17:57:16;9.80;1.00
20839;DHT22;10580;51.092;6.828;2022-12-29T17:59:42;9.80;1.00
20839;DHT22;10580;51.092;6.828;2022-12-29T18:04:52;9.80;4.30
20839;DHT22;10580;51.092;6.828;2022-12-29T18:07:18;9.70;13.50
20839;DHT22;10580;51.092;6.828;2022-12-29T18:09:43;9.70;21.90
20839;DHT22;10580;51.092;6.828;2022-12-29T18:12:26;9.70;25.80
20839;DHT22;10580;51.092;6.828;2022-12-29T18:14:52;9.60;82.50
20839;DHT22;10580;51.092;6.828;2022-12-29T18:17:17;9.50;98.40
20839;DHT22;10580;51.092;6.828;2022-12-29T18:19:43;9.40;99.90
20839;DHT22;10580;51.092;6.828;2022-12-29T18:22:09;9.30;99.90
20839;DHT22;10580;51.092;6.828;2022-12-29T18:24:37;9.20;99.90
20839;DHT22;10580;51.092;6.828;2022-12-29T18:27:14;9.20;99.90
20839;DHT22;10580;51.092;6.828;2022-12-29T18:29:40;9.10;99.90
20839;DHT22;10580;51.092;6.828;2022-12-29T18:32:11;9.10;99.90
20839;DHT22;10580;51.092;6.828;2022-12-29T18:34:36;9.10;99.90
20839;DHT22;10580;51.092;6.828;2022-12-29T18:37:02;9.00;99.90
20839;DHT22;10580;51.092;6.828;2022-12-29T18:39:28;9.00;99.90
20839;DHT22;10580;51.092;6.828;2022-12-29T18:41:53;8.90;99.90
20839;DHT22;10580;51.092;6.828;2022-12-29T18:44:19;8.80;99.90
20839;DHT22;10580;51.092;6.828;2022-12-29T18:46:46;8.90;99.90